createdAt,value
2018-05-25T00:02:19.203Z,43.00
2018-05-25T00:04:54.997Z,42.17
2018-05-25T00:07:30.790Z,40.50
2018-05-25T00:10:06.493Z,40.73
2018-05-25T00:12:42.424Z,40.03
2018-05-25T00:15:18.137Z,42.10
2018-05-25T00:17:54.032Z,41.60
2018-05-25T00:20:29.732Z,40.67
2018-05-25T00:23:05.546Z,39.63
2018-05-25T00:25:41.351Z,41.30
2018-05-25T00:28:17.212Z,40.00
2018-05-25T00:30:52.961Z,42.50
2018-05-25T00:33:28.738Z,39.20
2018-05-25T00:36:04.513Z,44.53
2018-05-25T00:38:40.363Z,42.77
2018-05-25T00:41:16.293Z,43.07
2018-05-25T00:43:52.147Z,40.93
2018-05-25T00:46:27.829Z,42.30
2018-05-25T00:49:03.600Z,40.30
2018-05-25T00:51:39.502Z,41.67
2018-05-25T00:54:15.205Z,43.77
2018-05-25T00:56:51.034Z,43.27
2018-05-25T00:59:26.812Z,42.47
2018-05-25T01:02:02.631Z,43.23
2018-05-25T01:04:38.329Z,43.70
2018-05-25T01:07:14.108Z,41.37
2018-05-25T01:09:49.968Z,44.57
2018-05-25T01:12:25.796Z,42.80
2018-05-25T01:15:01.673Z,44.47
2018-05-25T01:17:37.478Z,41.83
2018-05-25T01:20:13.376Z,44.10
2018-05-25T01:22:49.892Z,43.90
2018-05-25T01:25:25.590Z,43.77
2018-05-25T01:28:01.420Z,45.77
2018-05-25T01:30:37.182Z,43.20
2018-05-25T01:33:13.035Z,44.67
2018-05-25T01:35:48.859Z,45.70
2018-05-25T01:38:24.693Z,45.23
2018-05-25T01:41:00.377Z,45.20
2018-05-25T01:43:36.225Z,43.20
2018-05-25T01:46:12.091Z,43.60
2018-05-25T01:48:47.860Z,43.83
2018-05-25T01:51:23.670Z,44.70
2018-05-25T01:53:59.446Z,46.17
2018-05-25T01:56:35.299Z,46.97
2018-05-25T01:59:11.063Z,48.10
2018-05-25T02:01:46.879Z,47.50
2018-05-25T02:04:22.564Z,45.67
2018-05-25T02:06:58.373Z,47.00
2018-05-25T02:09:34.030Z,48.60
2018-05-25T02:12:09.792Z,50.20
2018-05-25T02:14:45.557Z,49.40
2018-05-25T02:17:21.294Z,48.47
2018-05-25T02:19:58.989Z,49.10
2018-05-25T02:22:34.828Z,48.20
2018-05-25T02:25:10.520Z,47.43
2018-05-25T02:27:46.463Z,46.00
2018-05-25T02:30:22.282Z,47.93
2018-05-25T02:32:58.160Z,48.87
2018-05-25T02:35:33.973Z,47.93
2018-05-25T02:38:11.709Z,47.93
2018-05-25T02:40:47.569Z,49.17
2018-05-25T02:43:24.643Z,47.63
2018-05-25T02:46:00.453Z,49.23
2018-05-25T02:48:36.306Z,50.63
2018-05-25T02:51:12.297Z,48.33
2018-05-25T02:53:48.149Z,51.20
2018-05-25T02:56:24.089Z,49.53
2018-05-25T02:59:00.049Z,50.23
2018-05-25T03:01:35.738Z,50.27
2018-05-25T03:04:11.558Z,53.33
2018-05-25T03:06:47.190Z,51.20
2018-05-25T03:09:23.032Z,49.37
2018-05-25T03:11:58.898Z,48.67
2018-05-25T03:14:34.549Z,48.27
2018-05-25T03:17:10.541Z,49.33
2018-05-25T03:19:46.257Z,49.33
2018-05-25T03:22:22.942Z,49.33
2018-05-25T03:24:58.713Z,49.50
2018-05-25T03:27:34.505Z,50.20
2018-05-25T03:30:10.270Z,52.73
2018-05-25T03:32:46.085Z,51.20
2018-05-25T03:35:21.830Z,50.20
2018-05-25T03:37:57.746Z,50.30
2018-05-25T03:40:33.526Z,53.03
2018-05-25T03:43:09.311Z,52.70
2018-05-25T03:45:45.160Z,52.73
2018-05-25T03:48:21.035Z,54.20
2018-05-25T03:50:56.760Z,53.23
2018-05-25T03:53:32.524Z,55.40
2018-05-25T03:56:08.364Z,52.07
2018-05-25T03:58:50.080Z,54.77
2018-05-25T04:01:31.750Z,52.97
2018-05-25T04:04:07.519Z,53.67
2018-05-25T04:06:43.283Z,57.17
2018-05-25T04:09:19.219Z,55.83
2018-05-25T04:11:55.989Z,55.30
2018-05-25T04:14:31.737Z,53.03
2018-05-25T04:17:07.597Z,51.63
2018-05-25T04:19:43.446Z,52.37
2018-05-25T04:22:19.215Z,53.37
2018-05-25T04:24:55.053Z,54.30
2018-05-25T04:27:30.803Z,52.47
2018-05-25T04:30:06.652Z,54.53
2018-05-25T04:32:42.447Z,53.93
2018-05-25T04:35:18.086Z,51.93
2018-05-25T04:37:53.846Z,51.60
2018-05-25T04:40:29.621Z,52.10
2018-05-25T04:43:05.413Z,50.97
2018-05-25T04:45:41.361Z,50.53
2018-05-25T04:48:15.536Z,50.10
2018-05-25T04:50:51.030Z,50.20
2018-05-25T04:53:26.659Z,50.60
2018-05-25T04:56:02.118Z,51.23
2018-05-25T04:58:37.811Z,51.60
2018-05-25T05:01:11.986Z,51.03
2018-05-25T05:03:46.113Z,51.87
2018-05-25T05:06:21.532Z,50.90
2018-05-25T05:08:55.801Z,52.90
2018-05-25T05:11:30.041Z,52.23
2018-05-25T05:14:04.358Z,48.43
2018-05-25T05:16:38.791Z,47.33
2018-05-25T05:19:12.878Z,45.77
2018-05-25T05:21:48.525Z,48.03
2018-05-25T05:24:22.755Z,47.07
2018-05-25T05:26:58.429Z,47.60
2018-05-25T05:29:33.873Z,47.50
2018-05-25T05:32:09.429Z,46.40
2018-05-25T05:34:44.613Z,47.70
2018-05-25T05:37:20.051Z,44.70
2018-05-25T05:39:54.568Z,47.87
2018-05-25T05:42:29.932Z,47.97
2018-05-25T05:45:05.472Z,46.70
2018-05-25T05:47:41.016Z,47.23
2018-05-25T05:50:16.873Z,43.90
2018-05-25T05:52:51.081Z,46.07
2018-05-25T05:55:25.388Z,43.50
2018-05-25T05:57:59.582Z,41.83
2018-05-25T06:00:34.923Z,38.07
2018-05-25T06:03:09.274Z,39.10
2018-05-25T06:05:43.553Z,35.87
2018-05-25T06:08:17.839Z,37.07
2018-05-25T06:10:52.082Z,36.67
2018-05-25T06:13:26.406Z,34.20
2018-05-25T06:16:00.773Z,33.13
2018-05-25T06:18:35.653Z,33.63
2018-05-25T06:21:09.862Z,31.83
2018-05-25T06:23:44.097Z,32.57
2018-05-25T06:26:19.434Z,32.10
2018-05-25T06:28:54.477Z,34.10
2018-05-25T06:31:28.886Z,33.83
2018-05-25T06:34:03.028Z,30.33
2018-05-25T06:36:37.305Z,31.77
2018-05-25T06:39:11.622Z,31.00
2018-05-25T06:41:45.763Z,32.30
2018-05-25T06:44:20.722Z,32.13
2018-05-25T06:46:54.960Z,31.67
2018-05-25T06:49:29.303Z,31.80
2018-05-25T06:52:03.527Z,33.70
2018-05-25T06:54:37.838Z,32.27
2018-05-25T06:57:12.086Z,32.37
2018-05-25T06:59:46.369Z,32.37
2018-05-25T07:02:20.687Z,31.27
2018-05-25T07:04:55.006Z,31.07
2018-05-25T07:07:29.317Z,34.33
2018-05-25T07:10:03.551Z,32.20
2018-05-25T07:12:38.567Z,30.20
2018-05-25T07:15:12.733Z,31.93
2018-05-25T07:17:50.979Z,30.50
2018-05-25T07:20:25.154Z,30.47
2018-05-25T07:23:00.214Z,31.90
2018-05-25T07:25:34.517Z,30.27
2018-05-25T07:28:09.701Z,29.03
2018-05-25T07:30:43.775Z,31.27
2018-05-25T07:33:18.157Z,29.50
2018-05-25T07:35:52.486Z,28.33
2018-05-25T07:38:26.625Z,30.57
2018-05-25T07:41:00.985Z,31.67
2018-05-25T07:43:35.283Z,32.10
2018-05-25T07:46:09.859Z,31.70
2018-05-25T07:48:44.489Z,33.07
2018-05-25T07:51:18.692Z,34.50
2018-05-25T07:53:53.783Z,33.30
2018-05-25T07:56:27.873Z,33.40
2018-05-25T07:59:02.947Z,32.67
2018-05-25T08:01:38.037Z,33.90
2018-05-25T08:04:12.194Z,30.70
2018-05-25T08:06:46.479Z,30.63
2018-05-25T08:09:20.706Z,30.43
2018-05-25T08:11:55.763Z,29.03
2018-05-25T08:14:30.053Z,28.77
2018-05-25T08:17:04.263Z,28.87
2018-05-25T08:19:38.510Z,29.70
2018-05-25T08:22:12.806Z,28.63
2018-05-25T08:24:47.219Z,28.90
2018-05-25T08:27:21.434Z,27.23
2018-05-25T08:29:56.535Z,28.60
2018-05-25T08:32:30.880Z,28.07
2018-05-25T08:35:05.187Z,27.20
2018-05-25T08:37:39.506Z,25.53
2018-05-25T08:40:13.820Z,24.90
2018-05-25T08:42:48.134Z,25.20
2018-05-25T08:45:22.372Z,24.97
2018-05-25T08:47:56.635Z,25.00
2018-05-25T08:50:30.874Z,25.57
2018-05-25T08:53:05.188Z,24.93
2018-05-25T08:55:40.277Z,21.90
2018-05-25T08:58:15.501Z,22.10
2018-05-25T09:00:49.802Z,23.70
2018-05-25T09:03:24.092Z,23.60
2018-05-25T09:05:58.391Z,26.77
2018-05-25T09:08:32.717Z,26.27
2018-05-25T09:11:07.027Z,27.20
2018-05-25T09:13:41.374Z,26.93
2018-05-25T09:16:15.618Z,27.47
2018-05-25T09:18:49.934Z,27.33
2018-05-25T09:21:24.322Z,24.40
2018-05-25T09:23:59.399Z,25.73
2018-05-25T09:26:33.785Z,28.90
2018-05-25T09:29:07.877Z,29.10
2018-05-25T09:31:42.098Z,27.90
2018-05-25T09:34:16.310Z,28.23
2018-05-25T09:36:51.324Z,28.50
2018-05-25T09:39:25.645Z,28.20
2018-05-25T09:42:00.005Z,25.07
2018-05-25T09:44:34.253Z,27.67
2018-05-25T09:47:09.490Z,25.97
2018-05-25T09:49:43.838Z,24.63
2018-05-25T09:52:19.466Z,22.43
2018-05-25T09:54:53.701Z,22.30
2018-05-25T09:57:28.029Z,21.80
2018-05-25T10:00:02.327Z,19.60
2018-05-25T10:02:36.667Z,19.10
2018-05-25T10:05:10.741Z,18.00
2018-05-25T10:07:45.070Z,18.53
2018-05-25T10:10:19.361Z,20.40
2018-05-25T10:12:53.473Z,20.73
2018-05-25T10:15:27.881Z,20.00
2018-05-25T10:18:02.033Z,18.70
2018-05-25T10:20:36.354Z,18.43
2018-05-25T10:23:10.571Z,16.80
2018-05-25T10:25:44.746Z,20.80
2018-05-25T10:28:18.882Z,20.30
2018-05-25T10:30:53.307Z,21.57
2018-05-25T10:33:27.728Z,19.70
2018-05-25T10:36:02.656Z,21.30
2018-05-25T10:38:36.962Z,23.70
2018-05-25T10:41:13.001Z,23.67
2018-05-25T10:43:47.418Z,22.67
2018-05-25T10:46:22.270Z,23.40
2018-05-25T10:48:56.603Z,24.30
2018-05-25T10:51:30.858Z,22.00
2018-05-25T10:54:04.953Z,22.90
2018-05-25T10:56:39.339Z,25.20
2018-05-25T10:59:13.646Z,22.60
2018-05-25T11:01:48.149Z,23.00
2018-05-25T11:04:22.177Z,19.90
2018-05-25T11:06:56.390Z,20.30
2018-05-25T11:09:30.694Z,19.83
2018-05-25T11:12:04.834Z,19.67
2018-05-25T11:14:38.909Z,19.70
2018-05-25T11:17:13.869Z,20.57
2018-05-25T11:19:47.939Z,19.90
2018-05-25T11:22:22.321Z,20.43
2018-05-25T11:24:56.502Z,17.67
2018-05-25T11:27:30.820Z,18.07
2018-05-25T11:33:03.616Z,14.57
2018-05-25T11:35:37.837Z,15.30
2018-05-25T11:38:12.172Z,13.17
2018-05-25T11:40:46.371Z,12.87
2018-05-25T11:43:20.679Z,11.77
2018-05-25T11:45:54.923Z,11.63
2018-05-25T11:48:29.164Z,14.37
2018-05-25T11:51:04.241Z,13.30
2018-05-25T11:53:38.667Z,14.30
2018-05-25T11:56:12.737Z,16.50
2018-05-25T11:58:46.917Z,18.10
2018-05-25T12:01:21.091Z,19.17
2018-05-25T12:03:55.294Z,17.50
2018-05-25T12:06:29.769Z,17.97
2018-05-25T12:09:03.919Z,16.60
2018-05-25T12:11:38.059Z,18.37
2018-05-25T12:14:12.482Z,17.53
2018-05-25T12:16:46.686Z,19.20
2018-05-25T12:19:20.893Z,19.03
2018-05-25T12:21:55.089Z,17.10
2018-05-25T12:24:29.375Z,17.73
2018-05-25T12:27:03.714Z,18.60
2018-05-25T12:29:38.009Z,18.10
2018-05-25T12:32:13.005Z,18.30
2018-05-25T12:34:47.117Z,18.60
2018-05-25T12:37:21.423Z,19.37
2018-05-25T12:39:55.635Z,19.90
2018-05-25T12:42:30.684Z,18.47
2018-05-25T12:45:11.545Z,18.40
2018-05-25T12:47:46.585Z,17.97
2018-05-25T12:50:20.891Z,19.77
2018-05-25T12:52:55.218Z,18.00
2018-05-25T12:55:29.383Z,19.10
2018-05-25T12:58:03.557Z,18.90
2018-05-25T13:00:37.949Z,19.23
2018-05-25T13:03:12.302Z,19.97
2018-05-25T13:05:46.595Z,17.20
2018-05-25T13:08:20.812Z,21.00
2018-05-25T13:10:55.001Z,18.97
2018-05-25T13:13:29.328Z,16.60
2018-05-25T13:16:03.538Z,16.10
2018-05-25T13:18:37.720Z,15.97
2018-05-25T13:21:12.070Z,18.50
2018-05-25T13:23:46.285Z,15.70
2018-05-25T13:26:21.565Z,15.57
2018-05-25T13:28:55.962Z,13.90
2018-05-25T13:31:30.157Z,14.30
2018-05-25T13:34:04.431Z,13.03
2018-05-25T13:36:38.683Z,13.87
2018-05-25T13:39:13.714Z,12.40
2018-05-25T13:41:48.210Z,13.17
2018-05-25T13:44:22.446Z,14.43
2018-05-25T13:46:56.558Z,14.00
2018-05-25T13:49:30.885Z,15.43
2018-05-25T13:52:05.090Z,16.17
2018-05-25T13:54:40.030Z,16.20
2018-05-25T13:57:14.335Z,14.53
2018-05-25T13:59:49.890Z,13.03
2018-05-25T14:02:25.330Z,13.73
2018-05-25T14:04:59.584Z,13.40
2018-05-25T14:07:33.878Z,12.40
2018-05-25T14:10:08.270Z,13.43
2018-05-25T14:12:42.400Z,15.30
2018-05-25T14:15:17.827Z,13.83
2018-05-25T14:17:52.047Z,14.10
2018-05-25T14:20:26.492Z,13.33
2018-05-25T14:23:00.784Z,14.90
2018-05-25T14:25:34.906Z,13.43
2018-05-25T14:28:09.143Z,11.53
2018-05-25T14:30:43.334Z,12.70
2018-05-25T14:33:17.401Z,14.97
2018-05-25T14:35:51.903Z,16.40
2018-05-25T14:38:26.193Z,15.47
2018-05-25T14:41:00.500Z,13.30
2018-05-25T14:43:35.408Z,12.80
2018-05-25T14:46:09.559Z,13.70
2018-05-25T14:48:43.914Z,13.03
2018-05-25T14:51:18.015Z,11.87
2018-05-25T14:53:52.379Z,12.93
2018-05-25T14:56:26.650Z,11.33
2018-05-25T14:59:02.078Z,11.10
2018-05-25T15:01:36.242Z,10.23
2018-05-25T15:04:10.533Z,11.90
2018-05-25T15:06:44.832Z,10.90
2018-05-25T15:09:19.075Z,12.23
2018-05-25T15:11:53.305Z,13.23
2018-05-25T15:14:27.602Z,12.97
2018-05-25T15:17:02.110Z,12.07
2018-05-25T15:19:38.368Z,12.10
2018-05-25T15:22:13.692Z,11.60
2018-05-25T15:24:48.669Z,12.57
2018-05-25T15:27:23.695Z,12.30
2018-05-25T15:29:57.977Z,11.10
2018-05-25T15:32:32.334Z,11.07
2018-05-25T15:35:06.333Z,11.20
2018-05-25T15:37:40.657Z,11.03
2018-05-25T15:40:15.627Z,10.50
2018-05-25T15:42:50.736Z,11.03
2018-05-25T15:45:24.826Z,12.80
2018-05-25T15:47:59.137Z,11.93
2018-05-25T15:50:33.287Z,11.80
2018-05-25T15:53:08.190Z,13.23
2018-05-25T15:55:42.295Z,12.30
2018-05-25T15:58:16.722Z,13.90
2018-05-25T16:00:50.937Z,12.77
2018-05-25T16:03:25.137Z,11.50
2018-05-25T16:05:59.783Z,10.83
2018-05-25T16:08:33.996Z,12.60
2018-05-25T16:11:08.381Z,12.07
2018-05-25T16:13:42.543Z,13.07
2018-05-25T16:16:16.629Z,11.03
2018-05-25T16:18:50.847Z,10.80
2018-05-25T16:21:25.061Z,10.20
2018-05-25T16:23:59.970Z,11.30
2018-05-25T16:26:34.123Z,10.53
2018-05-25T16:29:08.425Z,10.63
2018-05-25T16:31:42.746Z,11.30
2018-05-25T16:34:17.178Z,11.70
2018-05-25T16:36:51.387Z,12.97
2018-05-25T16:39:25.891Z,11.23
2018-05-25T16:42:00.121Z,11.70
2018-05-25T16:44:34.380Z,12.80
2018-05-25T16:47:08.634Z,13.43
2018-05-25T16:49:42.743Z,12.53
2018-05-25T16:52:17.166Z,11.53
2018-05-25T16:54:51.434Z,11.10
2018-05-25T16:57:25.703Z,11.30
2018-05-25T17:00:00.015Z,11.63
2018-05-25T17:02:36.170Z,10.77
2018-05-25T17:05:10.462Z,12.80
2018-05-25T17:07:47.569Z,12.10
2018-05-25T17:10:21.879Z,12.77
2018-05-25T17:12:56.730Z,12.00
2018-05-25T17:15:30.996Z,12.50
2018-05-25T17:18:05.130Z,12.00
2018-05-25T17:20:39.276Z,13.23
2018-05-25T17:23:13.405Z,11.90
2018-05-25T17:25:48.739Z,11.70
2018-05-25T17:28:22.860Z,11.00
2018-05-25T17:30:57.149Z,9.50
2018-05-25T17:33:31.337Z,10.00
2018-05-25T17:36:05.696Z,10.30
2018-05-25T17:38:39.966Z,10.07
2018-05-25T17:41:14.301Z,9.03
2018-05-25T17:43:48.628Z,9.30
2018-05-25T17:46:23.736Z,9.17
2018-05-25T17:48:57.954Z,9.43
2018-05-25T17:51:32.169Z,8.47
2018-05-25T17:54:07.190Z,8.73
2018-05-25T17:56:41.395Z,8.80
2018-05-25T17:59:15.714Z,8.13
2018-05-25T18:01:50.040Z,8.93
2018-05-25T18:04:24.982Z,8.93
2018-05-25T18:06:59.986Z,8.70
2018-05-25T18:09:34.313Z,7.73
2018-05-25T18:12:08.646Z,8.17
2018-05-25T18:14:43.681Z,7.77
2018-05-25T18:17:17.997Z,7.90
2018-05-25T18:19:52.098Z,8.40
2018-05-25T18:22:27.353Z,9.40
2018-05-25T18:25:01.501Z,8.40
2018-05-25T18:27:35.791Z,8.90
2018-05-25T18:30:09.887Z,9.40
2018-05-25T18:32:44.197Z,8.67
2018-05-25T18:35:18.590Z,8.57
2018-05-25T18:37:52.908Z,9.50
2018-05-25T18:40:27.242Z,8.77
2018-05-25T18:43:01.572Z,8.50
2018-05-25T18:45:36.610Z,9.40
2018-05-25T18:48:10.675Z,8.63
2018-05-25T18:50:45.039Z,8.90
2018-05-25T18:53:19.343Z,8.80
2018-05-25T18:55:53.949Z,9.50
2018-05-25T18:58:28.186Z,9.73
2018-05-25T19:01:03.310Z,9.07
2018-05-25T19:03:37.369Z,9.30
2018-05-25T19:06:12.258Z,9.23
2018-05-25T19:08:46.442Z,9.57
2018-05-25T19:11:20.771Z,8.80
2018-05-25T19:13:55.019Z,10.03
2018-05-25T19:16:29.329Z,9.50
2018-05-25T19:19:03.530Z,8.20
2018-05-25T19:21:37.738Z,9.73
2018-05-25T19:24:12.029Z,10.00
2018-05-25T19:26:47.601Z,10.93
2018-05-25T19:29:21.955Z,10.50
2018-05-25T19:31:56.243Z,10.17
2018-05-25T19:34:30.542Z,10.30
2018-05-25T19:37:05.562Z,9.60
2018-05-25T19:39:40.593Z,10.37
2018-05-25T19:42:14.923Z,10.57
2018-05-25T19:44:51.033Z,11.33
2018-05-25T19:47:25.321Z,10.97
2018-05-25T19:49:59.410Z,11.27
2018-05-25T19:52:33.630Z,11.53
2018-05-25T19:55:09.189Z,12.10
2018-05-25T19:57:43.251Z,11.60
2018-05-25T20:00:18.708Z,11.57
2018-05-25T20:02:52.809Z,11.67
2018-05-25T20:05:27.185Z,10.90
2018-05-25T20:08:01.351Z,12.40
2018-05-25T20:10:36.212Z,12.00
2018-05-25T20:13:10.383Z,11.70
2018-05-25T20:15:44.633Z,12.13
2018-05-25T20:18:18.816Z,11.33
2018-05-25T20:20:53.009Z,11.20
2018-05-25T20:23:28.719Z,12.00
2018-05-25T20:26:04.638Z,11.33
2018-05-25T20:28:40.524Z,12.10
2018-05-25T20:31:17.193Z,12.07
2018-05-25T20:33:52.954Z,11.30
2018-05-25T20:36:28.689Z,12.60
2018-05-25T20:39:04.599Z,13.27
2018-05-25T20:41:40.365Z,12.27
2018-05-25T20:44:16.102Z,12.63
2018-05-25T20:46:51.821Z,12.57
2018-05-25T20:49:27.767Z,12.90
2018-05-25T20:52:03.540Z,13.43
2018-05-25T20:54:39.829Z,11.70
2018-05-25T20:57:15.734Z,12.67
2018-05-25T20:59:51.564Z,13.10
2018-05-25T21:02:27.423Z,13.33
2018-05-25T21:05:03.159Z,12.43
2018-05-25T21:07:38.886Z,12.67
2018-05-25T21:10:15.498Z,12.10
2018-05-25T21:12:51.310Z,13.40
2018-05-25T21:15:27.519Z,12.70
2018-05-25T21:18:03.479Z,13.97
2018-05-25T21:20:39.274Z,13.87
2018-05-25T21:23:15.126Z,13.97
2018-05-25T21:25:51.005Z,13.27
2018-05-25T21:28:27.801Z,12.33
2018-05-25T21:31:04.578Z,13.10
2018-05-25T21:33:41.432Z,12.10
2018-05-25T21:36:18.521Z,13.93
2018-05-25T21:38:54.203Z,14.80
2018-05-25T21:41:30.230Z,14.20
2018-05-25T21:44:06.443Z,13.90
2018-05-25T21:46:45.115Z,14.10
2018-05-25T21:49:20.957Z,14.57
2018-05-25T21:51:56.611Z,16.00
2018-05-25T21:54:32.453Z,13.60
2018-05-25T21:57:08.265Z,13.53
2018-05-25T21:59:44.084Z,13.93
2018-05-25T22:02:20.045Z,15.60
2018-05-25T22:04:55.717Z,13.57
2018-05-25T22:07:32.687Z,15.00
2018-05-25T22:10:08.591Z,13.80
2018-05-25T22:12:44.457Z,15.40
2018-05-25T22:15:20.306Z,15.30
2018-05-25T22:17:56.261Z,15.80
2018-05-25T22:20:34.016Z,14.70
2018-05-25T22:23:10.822Z,15.33
2018-05-25T22:25:46.577Z,16.43
2018-05-25T22:28:22.437Z,16.57
2018-05-25T22:30:58.218Z,16.87
2018-05-25T22:33:34.136Z,19.93
2018-05-25T22:36:09.862Z,17.93
2018-05-25T22:38:45.701Z,16.73
2018-05-25T22:41:21.603Z,17.83
2018-05-25T22:44:03.381Z,18.80
2018-05-25T22:46:45.203Z,16.90
2018-05-25T22:49:26.970Z,18.17
2018-05-25T22:52:09.846Z,19.57
2018-05-25T22:54:45.489Z,17.43
2018-05-25T22:57:21.253Z,16.33
2018-05-25T22:59:56.981Z,17.30
2018-05-25T23:02:32.759Z,19.70
2018-05-25T23:05:08.735Z,20.07
2018-05-25T23:07:44.585Z,20.10
2018-05-25T23:10:20.655Z,21.27
2018-05-25T23:12:56.392Z,20.40
2018-05-25T23:15:32.169Z,20.03
2018-05-25T23:18:08.025Z,22.17
2018-05-25T23:20:43.854Z,20.13
2018-05-25T23:23:19.609Z,20.40
2018-05-25T23:25:55.353Z,20.80
2018-05-25T23:28:31.502Z,20.73
2018-05-25T23:31:07.353Z,21.00
2018-05-25T23:33:43.006Z,20.00
2018-05-25T23:36:18.953Z,21.60
2018-05-25T23:38:54.731Z,21.40
2018-05-25T23:41:30.433Z,21.70
2018-05-25T23:44:06.296Z,19.90
2018-05-25T23:46:42.077Z,21.73
2018-05-25T23:49:17.905Z,20.40
2018-05-25T23:51:53.881Z,20.00
2018-05-25T23:54:29.570Z,21.70
2018-05-25T23:57:05.447Z,22.23
2018-05-25T23:59:41.360Z,21.60
